Time;durP1;ratioP1;P1;durP2;ratioP2;P2;SDS_P1;SDS_P2;PMS_P1;PMS_P2;Temp;Humidity;BMP_temperature;BMP_pressure;BME280_temperature;BME280_humidity;BME280_pressure;Samples;Min_cycle;Max_cycle;Signal;HPM_P1;HPM_P2
2022/01/31 00:01:00;;;;;;;15.40;3.40;;;4.20;99.90;;;;;;5020071;28;20026;-71
2022/01/31 00:03:26;;;;;;;15.32;4.35;;;4.20;99.90;;;;;;5018976;28;20034;-71
2022/01/31 00:05:52;;;;;;;20.23;5.15;;;4.20;99.90;;;;;;5020377;28;20036;-71
2022/01/31 00:08:23;;;;;;;20.80;4.53;;;4.20;99.90;;;;;;5021618;28;20129;-71
2022/01/31 00:10:50;;;;;;;18.08;4.47;;;4.10;99.90;;;;;;5018890;28;20037;-71
2022/01/31 00:13:24;;;;;;;24.13;5.03;;;4.20;99.90;;;;;;5018196;28;20498;-71
2022/01/31 00:15:54;;;;;;;15.52;4.10;;;4.10;99.90;;;;;;5018332;28;20091;-71
2022/01/31 00:18:20;;;;;;;18.20;4.50;;;4.10;99.90;;;;;;5003803;28;20088;-71
2022/01/31 00:20:46;;;;;;;22.17;5.00;;;4.10;99.90;;;;;;5017881;28;20513;-71
2022/01/31 00:23:12;;;;;;;17.23;4.07;;;4.00;99.90;;;;;;5022890;28;20121;-71
2022/01/31 00:25:38;;;;;;;20.88;4.32;;;4.00;99.90;;;;;;5019532;28;20470;-71
2022/01/31 00:28:03;;;;;;;20.52;5.28;;;4.00;99.90;;;;;;5016145;28;20038;-71
2022/01/31 00:30:29;;;;;;;27.90;6.35;;;4.00;99.90;;;;;;5006412;28;20049;-71
2022/01/31 00:32:55;;;;;;;20.80;4.50;;;4.00;99.90;;;;;;5002079;28;20355;-71
2022/01/31 00:35:21;;;;;;;17.98;4.82;;;4.10;99.90;;;;;;5002108;28;20132;-71
2022/01/31 00:37:46;;;;;;;18.88;5.53;;;4.00;99.90;;;;;;5004579;28;20133;-71
2022/01/31 00:40:12;;;;;;;19.27;5.43;;;4.10;99.90;;;;;;5018826;28;20060;-71
2022/01/31 00:42:39;;;;;;;17.40;4.88;;;4.10;99.90;;;;;;5019541;28;20033;-71
2022/01/31 00:45:30;;;;;;;21.52;5.47;;;4.10;99.90;;;;;;5019003;28;20120;-71
2022/01/31 00:48:01;;;;;;;18.52;5.28;;;4.10;99.90;;;;;;5016130;28;20046;-71
2022/01/31 00:50:39;;;;;;;19.05;4.88;;;4.10;99.90;;;;;;5017937;28;20045;-71
2022/01/31 00:53:05;;;;;;;21.83;5.15;;;4.10;99.90;;;;;;5017007;28;20065;-70
2022/01/31 00:55:31;;;;;;;22.88;5.97;;;4.10;99.90;;;;;;5019803;28;20539;-70
2022/01/31 00:57:56;;;;;;;19.20;5.85;;;4.10;99.90;;;;;;5004033;28;20135;-70
2022/01/31 01:00:22;;;;;;;18.58;6.50;;;4.10;99.90;;;;;;5016018;28;20069;-70
2022/01/31 01:02:48;;;;;;;19.45;6.15;;;4.10;99.90;;;;;;5021433;28;20136;-70
2022/01/31 01:05:14;;;;;;;15.05;6.18;;;4.10;99.90;;;;;;5020106;28;20463;-70
2022/01/31 01:07:45;;;;;;;17.27;6.45;;;4.10;99.90;;;;;;5018591;28;20045;-70
2022/01/31 01:10:11;;;;;;;17.27;5.85;;;4.10;99.90;;;;;;5018254;28;20137;-70
2022/01/31 01:12:37;;;;;;;17.73;6.88;;;4.10;99.90;;;;;;5018899;28;20046;-70
2022/01/31 01:15:03;;;;;;;18.67;7.07;;;4.10;99.90;;;;;;5017732;28;20029;-71
2022/01/31 01:17:29;;;;;;;18.92;6.60;;;4.20;99.90;;;;;;5000557;28;20048;-69
2022/01/31 01:19:54;;;;;;;21.25;6.13;;;4.20;99.90;;;;;;5019957;28;20375;-70
2022/01/31 01:22:20;;;;;;;19.65;7.47;;;4.20;99.90;;;;;;5016388;28;20041;-70
2022/01/31 01:24:48;;;;;;;17.83;7.03;;;4.20;99.90;;;;;;5020089;28;20256;-69
2022/01/31 01:27:15;;;;;;;17.63;8.23;;;4.20;99.90;;;;;;5019754;28;20519;-70
2022/01/31 01:29:40;;;;;;;23.58;9.10;;;4.20;99.90;;;;;;5016172;28;20041;-70
2022/01/31 01:32:09;;;;;;;25.80;8.85;;;4.10;99.90;;;;;;5013001;28;20511;-70
2022/01/31 01:34:35;;;;;;;19.08;8.05;;;4.10;99.90;;;;;;5021903;28;20056;-70
2022/01/31 01:37:01;;;;;;;24.02;8.20;;;4.10;99.90;;;;;;5017098;28;20037;-70
2022/01/31 01:39:27;;;;;;;21.85;8.45;;;4.10;99.90;;;;;;5017517;28;20421;-69
2022/01/31 01:41:53;;;;;;;19.67;9.77;;;4.00;99.90;;;;;;5004324;28;20053;-69
2022/01/31 01:44:18;;;;;;;21.48;8.95;;;4.00;99.90;;;;;;5017236;28;20120;-69
2022/01/31 01:46:44;;;;;;;24.42;9.15;;;3.90;99.90;;;;;;5014832;28;20041;-69
2022/01/31 01:49:10;;;;;;;19.52;9.07;;;3.90;99.90;;;;;;5015876;28;20389;-69
2022/01/31 01:51:37;;;;;;;23.67;9.32;;;3.80;99.90;;;;;;5019687;28;20037;-69
2022/01/31 01:54:03;;;;;;;22.25;10.02;;;3.90;99.90;;;;;;5015092;28;20084;-68
2022/01/31 01:56:29;;;;;;;17.40;9.77;;;3.80;99.90;;;;;;5018695;28;20053;-68
2022/01/31 01:58:55;;;;;;;18.48;10.73;;;3.70;99.90;;;;;;5018083;28;20115;-68
2022/01/31 02:01:20;;;;;;;16.80;10.00;;;3.60;99.90;;;;;;5017350;28;20479;-67
2022/01/31 02:03:46;;;;;;;22.10;10.98;;;3.60;99.90;;;;;;5019835;28;20052;-67
2022/01/31 02:06:12;;;;;;;23.88;11.38;;;3.50;99.90;;;;;;5019830;28;20060;-67
2022/01/31 02:08:42;;;;;;;21.55;10.88;;;3.50;99.90;;;;;;5019433;28;20060;-67
2022/01/31 02:11:10;;;;;;;20.15;11.52;;;3.50;99.90;;;;;;5003828;28;20033;-68
2022/01/31 02:13:37;;;;;;;20.77;11.95;;;3.50;99.90;;;;;;5019832;28;20037;-68
2022/01/31 02:16:05;;;;;;;17.13;10.48;;;3.50;99.90;;;;;;5001998;28;20050;-68
2022/01/31 02:18:31;;;;;;;19.55;11.05;;;3.40;99.90;;;;;;5022409;28;20437;-68
2022/01/31 02:20:57;;;;;;;29.65;12.70;;;3.50;99.90;;;;;;5023447;28;20041;-68
2022/01/31 02:23:23;;;;;;;20.50;10.60;;;3.50;99.90;;;;;;5022433;28;20119;-68
2022/01/31 02:26:04;;;;;;;16.65;10.60;;;3.50;99.90;;;;;;5018877;28;20049;-68
2022/01/31 02:28:38;;;;;;;17.48;10.27;;;3.50;99.90;;;;;;5022562;28;20501;-68
2022/01/31 02:31:05;;;;;;;21.60;10.63;;;3.50;99.90;;;;;;5021797;28;20044;-68
2022/01/31 02:33:31;;;;;;;15.98;8.82;;;3.50;99.90;;;;;;5021214;28;20117;-68
2022/01/31 02:36:04;;;;;;;16.48;9.13;;;3.50;99.90;;;;;;5021462;28;20095;-68
2022/01/31 02:38:30;;;;;;;15.75;8.77;;;3.50;99.90;;;;;;5019101;28;20045;-68
2022/01/31 02:40:56;;;;;;;15.77;8.88;;;3.50;99.90;;;;;;5022401;28;20053;-68
2022/01/31 02:43:28;;;;;;;19.27;8.77;;;3.50;99.90;;;;;;5020589;28;20069;-67
2022/01/31 02:45:54;;;;;;;11.73;7.05;;;3.60;99.90;;;;;;5018587;28;20053;-67
2022/01/31 02:48:23;;;;;;;12.35;6.18;;;3.60;99.90;;;;;;5019600;28;20044;-67
2022/01/31 02:50:49;;;;;;;14.35;6.22;;;3.60;99.90;;;;;;5020938;28;20037;-67
2022/01/31 02:53:26;;;;;;;9.98;6.30;;;3.50;99.90;;;;;;5021843;28;20449;-67
2022/01/31 02:55:53;;;;;;;8.77;6.25;;;3.60;99.90;;;;;;5037388;28;20053;-67
2022/01/31 02:58:20;;;;;;;9.20;5.50;;;3.60;99.90;;;;;;5020845;28;20411;-67
2022/01/31 03:00:46;;;;;;;12.70;6.13;;;3.60;99.90;;;;;;5021735;28;20041;-67
2022/01/31 03:03:12;;;;;;;11.55;6.47;;;3.60;99.90;;;;;;5019890;28;20064;-67
2022/01/31 03:05:38;;;;;;;10.60;5.38;;;3.60;99.90;;;;;;5019242;28;20474;-67
2022/01/31 03:08:05;;;;;;;13.38;6.50;;;3.60;99.90;;;;;;5022907;28;20065;-66
2022/01/31 03:10:31;;;;;;;8.73;5.20;;;3.70;99.90;;;;;;5022678;28;20033;-67
2022/01/31 03:12:56;;;;;;;11.65;5.95;;;3.60;99.90;;;;;;5020404;28;20047;-67
2022/01/31 03:15:22;;;;;;;11.02;4.85;;;3.60;99.90;;;;;;5021683;28;20049;-67
2022/01/31 03:17:50;;;;;;;14.65;6.43;;;3.70;99.90;;;;;;5021782;28;20125;-67
2022/01/31 03:20:18;;;;;;;12.30;5.68;;;3.80;99.90;;;;;;5019605;28;20048;-67
2022/01/31 03:22:44;;;;;;;10.77;5.97;;;3.90;99.90;;;;;;5021208;28;20045;-67
2022/01/31 03:25:11;;;;;;;13.73;6.45;;;3.90;99.90;;;;;;5022423;28;20116;-67
2022/01/31 03:27:37;;;;;;;14.48;6.82;;;3.90;99.90;;;;;;5018065;28;20045;-67
2022/01/31 03:30:06;;;;;;;13.40;6.32;;;4.00;99.90;;;;;;5023556;28;20033;-67
2022/01/31 03:32:32;;;;;;;12.20;5.22;;;4.10;99.90;;;;;;5018936;28;20049;-67
2022/01/31 03:34:57;;;;;;;14.60;6.45;;;4.10;99.90;;;;;;5020342;28;20044;-67
2022/01/31 03:37:23;;;;;;;15.45;6.00;;;4.20;99.90;;;;;;5021953;28;20041;-67
2022/01/31 03:39:49;;;;;;;18.83;6.82;;;4.40;99.90;;;;;;5021388;28;21573;-67
2022/01/31 03:42:18;;;;;;;17.27;5.68;;;4.40;99.90;;;;;;5019369;28;20051;-67
2022/01/31 03:44:44;;;;;;;24.40;6.15;;;4.60;99.90;;;;;;5036076;28;20058;-68
2022/01/31 03:47:10;;;;;;;18.15;4.43;;;4.60;99.90;;;;;;5020529;28;20059;-67
2022/01/31 03:49:36;;;;;;;22.23;4.53;;;4.70;99.90;;;;;;5019087;28;20124;-67
2022/01/31 03:52:02;;;;;;;22.77;4.75;;;4.80;99.90;;;;;;5021030;28;20079;-67
2022/01/31 03:54:28;;;;;;;19.73;4.60;;;4.90;99.90;;;;;;5023863;28;20049;-68
2022/01/31 03:56:53;;;;;;;18.70;4.60;;;4.80;99.90;;;;;;5017468;28;20029;-68
2022/01/31 03:59:19;;;;;;;22.85;4.60;;;5.00;99.90;;;;;;5020574;28;20034;-68
2022/01/31 04:01:45;;;;;;;24.25;3.90;;;5.00;99.90;;;;;;5021769;28;20052;-68
2022/01/31 04:04:11;;;;;;;24.10;4.55;;;5.10;99.90;;;;;;5020053;28;20033;-68
2022/01/31 04:06:38;;;;;;;26.83;3.83;;;5.20;99.90;;;;;;5020539;28;20449;-68
2022/01/31 04:09:04;;;;;;;24.55;4.53;;;5.20;99.90;;;;;;5019694;28;20037;-68
2022/01/31 04:11:30;;;;;;;27.05;4.53;;;5.20;99.90;;;;;;5021063;28;20164;-68
2022/01/31 04:13:55;;;;;;;21.60;3.58;;;5.30;99.90;;;;;;5019554;28;20117;-68
2022/01/31 04:16:21;;;;;;;18.88;3.97;;;5.30;99.90;;;;;;5020561;28;20041;-68
2022/01/31 04:18:47;;;;;;;22.98;3.50;;;5.30;99.90;;;;;;5016279;28;20056;-68
2022/01/31 04:21:13;;;;;;;19.50;3.78;;;5.30;99.90;;;;;;5017100;28;20037;-68
2022/01/31 04:23:40;;;;;;;20.17;3.45;;;5.40;99.90;;;;;;5020881;28;20049;-68
2022/01/31 04:26:14;;;;;;;20.63;3.72;;;5.40;99.90;;;;;;5021181;28;20502;-68
2022/01/31 04:28:45;;;;;;;25.77;3.43;;;5.40;99.90;;;;;;5015724;28;20042;-68
2022/01/31 04:33:49;;;;;;;24.55;2.75;;;5.40;99.90;;;;;;5021582;28;20045;-68
2022/01/31 04:36:15;;;;;;;19.02;3.78;;;5.40;99.90;;;;;;5016992;28;20549;-67
2022/01/31 04:38:42;;;;;;;19.92;3.13;;;5.40;99.90;;;;;;5020421;28;20048;-68
2022/01/31 04:41:08;;;;;;;19.17;3.22;;;5.40;99.90;;;;;;5018376;28;20069;-68
2022/01/31 04:43:34;;;;;;;21.00;3.17;;;5.50;99.90;;;;;;5020927;28;20069;-68
2022/01/31 04:46:03;;;;;;;20.05;3.22;;;5.50;99.90;;;;;;5018125;28;20042;-67
2022/01/31 04:48:28;;;;;;;17.60;2.80;;;5.50;99.90;;;;;;5017875;28;20503;-68
2022/01/31 04:50:54;;;;;;;17.63;2.95;;;5.40;99.90;;;;;;5018912;28;20036;-68
2022/01/31 04:53:20;;;;;;;15.55;2.83;;;5.30;99.90;;;;;;5017674;28;20056;-68
2022/01/31 04:55:46;;;;;;;19.75;3.33;;;5.40;99.90;;;;;;5019720;28;20520;-68
2022/01/31 04:58:12;;;;;;;22.42;3.17;;;5.30;99.90;;;;;;5019621;28;20025;-68
2022/01/31 05:00:38;;;;;;;22.77;3.40;;;5.20;99.90;;;;;;4998750;28;20041;-68
2022/01/31 05:03:11;;;;;;;23.95;3.75;;;5.20;99.90;;;;;;5020607;28;20041;-68
2022/01/31 05:05:36;;;;;;;19.25;2.88;;;5.20;99.90;;;;;;5018218;28;20068;-68
2022/01/31 05:08:02;;;;;;;22.63;3.63;;;5.30;99.90;;;;;;5018552;28;20490;-68
2022/01/31 05:10:28;;;;;;;20.02;3.58;;;5.30;99.90;;;;;;5017885;28;20045;-68
2022/01/31 05:12:54;;;;;;;24.35;3.20;;;5.30;99.90;;;;;;5021163;28;20144;-68
2022/01/31 05:15:20;;;;;;;19.63;3.10;;;5.30;99.90;;;;;;5018667;28;20405;-68
2022/01/31 05:17:46;;;;;;;24.80;3.45;;;5.20;99.90;;;;;;5017445;28;20041;-67
2022/01/31 05:20:12;;;;;;;24.08;3.63;;;5.20;99.90;;;;;;5018418;28;20448;-68
2022/01/31 05:22:38;;;;;;;19.02;3.28;;;5.20;99.90;;;;;;5018408;28;20428;-68
2022/01/31 05:25:04;;;;;;;24.10;3.08;;;5.20;99.90;;;;;;5017223;28;20103;-67
2022/01/31 05:27:29;;;;;;;21.10;3.15;;;5.30;99.90;;;;;;5020686;28;20122;-67
2022/01/31 05:29:55;;;;;;;11.85;1.80;;;5.20;99.90;;;;;;5015360;28;20049;-67
2022/01/31 05:32:21;;;;;;;5.18;0.52;;;5.20;99.90;;;;;;5016596;28;20052;-67
2022/01/31 05:34:47;;;;;;;6.72;0.75;;;5.10;99.90;;;;;;5022167;28;20096;-67
2022/01/31 05:37:12;;;;;;;6.03;0.80;;;4.90;99.90;;;;;;5019610;28;20073;-66
2022/01/31 05:39:39;;;;;;;6.32;0.63;;;4.70;99.90;;;;;;5014135;28;20057;-67
2022/01/31 05:42:05;;;;;;;4.25;0.52;;;4.70;99.90;;;;;;5019514;28;20052;-67
2022/01/31 05:44:31;;;;;;;6.85;0.50;;;4.60;99.90;;;;;;5017932;28;20033;-67
2022/01/31 05:46:57;;;;;;;4.88;0.60;;;4.60;99.90;;;;;;5015230;28;20048;-67
2022/01/31 05:49:23;;;;;;;3.47;0.60;;;4.50;99.90;;;;;;5019603;28;20038;-67
2022/01/31 05:52:04;;;;;;;5.03;0.75;;;4.50;99.90;;;;;;5022671;28;20497;-67
2022/01/31 05:54:32;;;;;;;4.60;0.43;;;4.50;99.90;;;;;;5021679;28;20053;-67
2022/01/31 05:56:59;;;;;;;4.35;0.57;;;4.50;99.90;;;;;;5022921;28;20042;-66
2022/01/31 05:59:25;;;;;;;5.28;0.57;;;4.50;99.90;;;;;;5024798;28;20041;-67
2022/01/31 06:01:51;;;;;;;5.55;0.60;;;4.50;99.90;;;;;;5018047;28;20045;-67
2022/01/31 06:04:17;;;;;;;6.25;0.77;;;4.50;99.90;;;;;;5024606;28;20087;-66
2022/01/31 06:06:43;;;;;;;6.78;0.70;;;4.60;99.90;;;;;;5041610;28;20120;-66
2022/01/31 06:09:09;;;;;;;7.90;1.10;;;4.50;99.90;;;;;;5022925;28;20140;-66
2022/01/31 06:11:35;;;;;;;11.25;0.88;;;4.50;99.90;;;;;;5020919;28;20081;-66
2022/01/31 06:14:02;;;;;;;9.25;1.75;;;4.50;99.90;;;;;;5020650;28;20697;-66
2022/01/31 06:16:29;;;;;;;11.52;1.40;;;4.50;99.90;;;;;;5021364;28;20485;-67
2022/01/31 06:18:55;;;;;;;8.55;0.90;;;4.50;99.90;;;;;;5020839;28;20068;-67
2022/01/31 06:21:21;;;;;;;12.52;1.38;;;4.60;99.90;;;;;;5022411;28;20160;-67
2022/01/31 06:23:47;;;;;;;12.00;1.67;;;4.60;99.90;;;;;;5019281;28;20492;-67
2022/01/31 06:26:13;;;;;;;10.27;1.25;;;4.60;99.90;;;;;;5022616;28;20060;-67
2022/01/31 06:28:39;;;;;;;16.88;2.30;;;4.60;99.90;;;;;;5016497;28;20042;-66
2022/01/31 06:31:05;;;;;;;13.93;1.85;;;4.60;99.90;;;;;;5023642;28;20040;-66
2022/01/31 06:33:30;;;;;;;13.45;1.85;;;4.70;99.90;;;;;;5021621;28;20049;-67
2022/01/31 06:35:56;;;;;;;16.83;1.75;;;4.70;99.90;;;;;;5020142;28;20057;-67
2022/01/31 06:38:23;;;;;;;21.98;2.92;;;4.70;99.90;;;;;;5022294;28;20363;-67
2022/01/31 06:40:49;;;;;;;14.20;1.85;;;4.80;99.90;;;;;;5022678;28;20098;-67
2022/01/31 06:43:15;;;;;;;16.17;1.80;;;4.80;99.90;;;;;;5021148;28;21869;-67
2022/01/31 06:45:41;;;;;;;17.17;2.42;;;4.80;99.90;;;;;;5020593;28;20085;-67
2022/01/31 06:48:07;;;;;;;14.48;1.70;;;4.90;99.90;;;;;;5021262;28;20346;-67
2022/01/31 06:50:33;;;;;;;24.00;2.30;;;4.90;99.90;;;;;;5021429;28;20440;-67
2022/01/31 06:53:01;;;;;;;15.55;2.20;;;4.90;99.90;;;;;;5019964;28;20124;-67
2022/01/31 06:55:29;;;;;;;15.43;1.80;;;4.90;99.90;;;;;;5019182;28;20057;-66
2022/01/31 06:57:54;;;;;;;16.90;2.15;;;4.90;99.90;;;;;;5020064;28;20073;-67
2022/01/31 07:00:21;;;;;;;16.45;1.60;;;5.00;99.90;;;;;;5022702;28;20166;-67
2022/01/31 07:02:48;;;;;;;12.73;1.67;;;4.90;99.90;;;;;;5021775;28;20072;-67
2022/01/31 07:05:14;;;;;;;12.93;1.75;;;5.00;99.90;;;;;;5022766;28;20037;-67
2022/01/31 07:07:40;;;;;;;14.88;2.30;;;5.00;99.90;;;;;;5019935;28;20065;-67
2022/01/31 07:10:06;;;;;;;9.05;1.10;;;4.90;99.90;;;;;;5020231;28;20517;-67
2022/01/31 07:12:35;;;;;;;15.30;1.45;;;5.00;99.90;;;;;;5021771;28;20062;-67
2022/01/31 07:15:02;;;;;;;9.18;0.90;;;4.90;99.90;;;;;;5022259;28;20049;-66
2022/01/31 07:17:28;;;;;;;7.65;1.05;;;4.90;99.90;;;;;;5025655;28;20544;-66
2022/01/31 07:19:54;;;;;;;8.65;0.93;;;4.80;99.90;;;;;;5019668;28;20576;-66
2022/01/31 07:22:26;;;;;;;6.85;0.80;;;4.80;99.90;;;;;;5026039;28;20044;-66
2022/01/31 07:25:01;;;;;;;8.63;1.00;;;4.80;99.90;;;;;;5027114;28;20065;-66
2022/01/31 07:27:27;;;;;;;5.97;0.82;;;4.80;99.90;;;;;;5021579;28;20050;-66
2022/01/31 07:29:53;;;;;;;9.27;0.70;;;4.80;99.90;;;;;;5017813;28;20147;-66
2022/01/31 07:32:19;;;;;;;7.25;1.10;;;4.70;99.90;;;;;;5023380;28;20034;-66
2022/01/31 07:34:52;;;;;;;10.13;1.30;;;4.70;99.90;;;;;;5022064;28;20042;-66
2022/01/31 07:37:19;;;;;;;10.57;1.20;;;4.80;99.90;;;;;;5022473;28;20050;-66
2022/01/31 07:39:45;;;;;;;14.80;1.90;;;4.80;99.90;;;;;;5025601;28;20091;-66
2022/01/31 07:42:11;;;;;;;11.68;1.63;;;4.80;99.90;;;;;;5019663;28;20033;-66
2022/01/31 07:44:37;;;;;;;12.90;1.45;;;4.80;99.90;;;;;;5025206;28;20434;-66
2022/01/31 07:47:04;;;;;;;9.57;1.33;;;4.80;99.90;;;;;;5020043;28;20041;-66
2022/01/31 07:49:30;;;;;;;15.45;1.67;;;4.80;99.90;;;;;;5018082;28;20501;-65
2022/01/31 07:51:58;;;;;;;12.20;1.73;;;4.80;99.90;;;;;;5021455;28;20106;-65
2022/01/31 07:54:24;;;;;;;16.75;1.73;;;4.90;99.90;;;;;;5022738;28;20369;-66
2022/01/31 07:56:49;;;;;;;9.88;1.80;;;5.00;99.90;;;;;;5023702;28;20076;-66
2022/01/31 07:59:15;;;;;;;17.73;2.22;;;5.00;99.90;;;;;;5016295;28;20092;-66
2022/01/31 08:01:41;;;;;;;14.38;2.75;;;5.00;99.90;;;;;;5017168;28;20091;-66
2022/01/31 08:04:07;;;;;;;11.68;2.03;;;5.10;99.90;;;;;;5018512;28;20045;-65
2022/01/31 08:06:34;;;;;;;12.65;1.73;;;5.10;99.90;;;;;;5025189;28;20042;-66
2022/01/31 08:09:00;;;;;;;13.48;1.90;;;5.20;99.90;;;;;;5021291;28;20038;-66
2022/01/31 08:11:31;;;;;;;8.07;1.35;;;5.20;99.90;;;;;;5024569;28;20053;-66
2022/01/31 08:14:01;;;;;;;9.85;1.45;;;5.20;99.90;;;;;;5020972;28;20081;-66
2022/01/31 08:16:26;;;;;;;9.95;1.90;;;5.20;99.90;;;;;;5018027;28;20033;-66
2022/01/31 08:18:52;;;;;;;13.65;1.52;;;5.30;99.90;;;;;;5018516;28;20038;-66
2022/01/31 08:21:20;;;;;;;9.27;1.73;;;5.30;99.90;;;;;;5021241;28;20033;-67
2022/01/31 08:23:46;;;;;;;11.40;1.92;;;5.40;99.90;;;;;;5021259;28;20041;-66
2022/01/31 08:26:17;;;;;;;13.73;2.20;;;5.40;99.90;;;;;;5015521;28;20045;-67
2022/01/31 08:28:55;;;;;;;13.30;2.85;;;5.50;99.90;;;;;;5020517;28;20046;-67
2022/01/31 08:31:33;;;;;;;16.80;2.50;;;5.50;99.90;;;;;;5020897;28;20168;-67
2022/01/31 08:36:30;;;;;;;23.50;3.03;;;5.70;99.90;;;;;;5022661;28;20049;-67
2022/01/31 08:38:57;;;;;;;15.70;2.08;;;5.70;99.90;;;;;;5022623;28;20472;-67
2022/01/31 08:41:24;;;;;;;17.60;2.38;;;5.80;99.90;;;;;;5018796;28;20041;-67
2022/01/31 08:43:50;;;;;;;18.08;3.13;;;5.70;99.90;;;;;;5019621;28;20049;-66
2022/01/31 08:46:17;;;;;;;19.90;3.08;;;5.90;99.90;;;;;;5018657;28;20030;-67
2022/01/31 08:48:43;;;;;;;26.70;2.85;;;5.90;99.90;;;;;;5018335;28;20387;-67
2022/01/31 08:51:11;;;;;;;19.92;3.08;;;5.80;99.90;;;;;;5012720;28;20466;-66
2022/01/31 08:53:37;;;;;;;22.63;2.83;;;5.90;99.90;;;;;;5017172;28;20391;-67
2022/01/31 08:56:09;;;;;;;26.08;3.67;;;6.00;99.90;;;;;;5023977;28;20049;-66
2022/01/31 08:58:41;;;;;;;16.75;2.55;;;6.00;99.90;;;;;;5020781;28;20046;-67
2022/01/31 09:01:08;;;;;;;20.02;3.50;;;6.00;99.90;;;;;;5019549;28;20046;-66
2022/01/31 09:06:04;;;;;;;15.27;2.58;;;6.00;99.90;;;;;;5021998;28;20124;-66
2022/01/31 09:08:30;;;;;;;15.43;2.17;;;6.00;99.90;;;;;;5022600;28;20049;-66
2022/01/31 09:10:56;;;;;;;14.45;2.05;;;6.00;99.90;;;;;;5014409;28;20077;-66
2022/01/31 09:13:22;;;;;;;12.40;1.85;;;6.20;99.90;;;;;;5024893;28;20045;-66
2022/01/31 09:15:48;;;;;;;12.63;1.67;;;6.20;99.90;;;;;;5014805;28;20110;-67
2022/01/31 09:18:14;;;;;;;16.33;1.65;;;6.30;99.90;;;;;;5019772;28;20136;-67
2022/01/31 09:20:39;;;;;;;7.38;1.35;;;6.80;99.90;;;;;;5021844;28;20084;-67
2022/01/31 09:23:06;;;;;;;5.72;0.85;;;7.30;99.90;;;;;;5020949;28;20039;-67
2022/01/31 09:25:33;;;;;;;12.23;1.48;;;7.90;99.90;;;;;;5019766;28;20117;-67
2022/01/31 09:27:59;;;;;;;10.50;1.50;;;7.90;99.90;;;;;;5020003;28;20034;-67
2022/01/31 09:30:27;;;;;;;10.90;1.23;;;7.60;99.90;;;;;;5025076;28;20034;-67
2022/01/31 09:32:54;;;;;;;13.60;1.88;;;7.40;99.90;;;;;;5023027;28;20038;-67
2022/01/31 09:35:20;;;;;;;10.93;1.42;;;7.10;99.90;;;;;;5025886;28;20037;-67
2022/01/31 09:37:46;;;;;;;10.20;1.15;;;6.90;99.90;;;;;;5022166;28;20046;-67
2022/01/31 09:40:19;;;;;;;12.18;1.27;;;6.80;99.90;;;;;;5022283;28;20417;-67
2022/01/31 09:51:03;;;;;;;7.60;1.10;;;6.50;99.90;;;;;;5021709;28;20056;-67
2022/01/31 09:53:36;;;;;;;6.55;0.93;;;6.50;99.90;;;;;;5023578;28;20131;-67
2022/01/31 09:56:03;;;;;;;11.57;1.38;;;6.50;99.90;;;;;;5023271;28;20054;-66
2022/01/31 09:58:29;;;;;;;12.48;1.20;;;6.60;99.90;;;;;;5018790;28;20053;-66
2022/01/31 10:01:13;;;;;;;8.23;1.20;;;6.50;99.90;;;;;;5020765;28;20034;-66
2022/01/31 10:03:51;;;;;;;9.17;1.27;;;6.60;99.90;;;;;;5025849;28;20156;-67
2022/01/31 10:06:27;;;;;;;10.50;1.00;;;6.60;99.90;;;;;;5022661;28;20049;-67
2022/01/31 10:09:17;;;;;;;8.45;1.20;;;6.70;99.90;;;;;;5021606;28;20151;-67
2022/01/31 10:11:56;;;;;;;8.02;1.52;;;6.60;99.90;;;;;;5019700;28;20042;-67
2022/01/31 10:17:23;;;;;;;5.68;0.80;;;6.70;99.90;;;;;;5024098;28;20052;-67
2022/01/31 10:19:49;;;;;;;5.22;0.80;;;6.70;99.90;;;;;;5025751;28;20316;-67
2022/01/31 10:22:17;;;;;;;5.35;1.05;;;6.80;99.90;;;;;;5019418;28;20509;-67
2022/01/31 10:24:45;;;;;;;6.65;0.70;;;6.70;99.90;;;;;;5020774;28;20112;-67
2022/01/31 10:27:21;;;;;;;10.75;1.05;;;6.90;99.90;;;;;;5021438;28;20155;-67
2022/01/31 10:29:49;;;;;;;7.03;0.60;;;7.00;99.90;;;;;;5020862;28;20425;-67
2022/01/31 10:32:26;;;;;;;8.60;1.10;;;7.70;99.90;;;;;;5023150;28;20130;-67
2022/01/31 10:34:55;;;;;;;5.38;0.70;;;8.80;99.90;;;;;;5020394;28;20061;-67
2022/01/31 10:37:22;;;;;;;9.80;1.05;;;8.90;99.90;;;;;;5018350;28;20049;-66
2022/01/31 10:45:38;;;;;;;6.70;0.85;;;7.80;99.90;;;;;;5018914;28;20076;-66
2022/01/31 10:53:43;;;;;;;7.72;0.73;;;7.60;99.90;;;;;;5026488;28;20133;-67
2022/01/31 10:56:09;;;;;;;8.75;1.20;;;7.50;99.90;;;;;;5019319;28;20540;-67
2022/01/31 10:58:51;;;;;;;6.85;1.02;;;7.50;99.90;;;;;;5017321;28;20064;-67
2022/01/31 11:01:17;;;;;;;11.45;1.25;;;7.40;99.90;;;;;;5022738;28;20116;-67
2022/01/31 11:03:45;;;;;;;13.00;1.40;;;7.30;99.90;;;;;;5021462;28;20045;-67
2022/01/31 11:06:12;;;;;;;10.02;1.00;;;7.30;99.90;;;;;;5020000;28;20045;-67
2022/01/31 11:08:38;;;;;;;11.40;1.13;;;7.30;99.90;;;;;;5022661;28;20470;-67
2022/01/31 11:11:05;;;;;;;8.55;1.45;;;7.40;99.90;;;;;;5019693;28;20513;-67
2022/01/31 11:13:36;;;;;;;11.02;1.30;;;7.40;99.90;;;;;;5021138;28;20466;-67
2022/01/31 11:16:04;;;;;;;10.88;1.30;;;7.40;99.90;;;;;;5019419;28;20047;-67
2022/01/31 11:18:32;;;;;;;14.73;1.30;;;7.30;99.90;;;;;;5020407;28;20053;-67
2022/01/31 11:21:01;;;;;;;15.05;1.48;;;7.30;99.90;;;;;;5019349;28;20049;-67
2022/01/31 11:23:29;;;;;;;16.40;1.45;;;7.30;99.90;;;;;;5024118;28;20083;-67
2022/01/31 11:26:01;;;;;;;14.43;2.13;;;7.30;99.90;;;;;;5021655;28;20052;-67
2022/01/31 11:28:33;;;;;;;17.67;2.35;;;7.30;99.90;;;;;;5017851;28;20049;-67
2022/01/31 11:31:01;;;;;;;12.02;2.30;;;7.50;99.90;;;;;;5017668;28;20060;-68
2022/01/31 11:33:27;;;;;;;12.60;1.85;;;7.60;99.90;;;;;;5020582;28;20440;-68
2022/01/31 11:35:54;;;;;;;14.60;1.67;;;7.80;99.90;;;;;;5017797;28;20497;-68
2022/01/31 11:38:21;;;;;;;11.80;1.40;;;7.90;99.90;;;;;;5021117;28;20559;-67
2022/01/31 11:40:47;;;;;;;11.70;1.80;;;8.10;99.90;;;;;;5022940;28;20549;-67
2022/01/31 11:43:15;;;;;;;14.45;1.90;;;8.00;99.90;;;;;;5020958;28;20037;-67
2022/01/31 11:45:42;;;;;;;14.65;2.25;;;8.00;99.90;;;;;;5019685;28;20414;-67
2022/01/31 11:48:25;;;;;;;13.45;1.85;;;8.00;99.90;;;;;;5020488;28;20046;-67
2022/01/31 11:50:57;;;;;;;12.27;2.40;;;7.90;99.90;;;;;;5021515;28;20049;-68
2022/01/31 11:53:26;;;;;;;16.33;1.88;;;7.90;99.90;;;;;;5017760;28;20650;-68
2022/01/31 11:55:52;;;;;;;13.70;2.20;;;8.00;99.90;;;;;;5016302;28;20054;-67
2022/01/31 11:58:18;;;;;;;13.48;1.67;;;7.90;99.90;;;;;;5022183;28;20048;-68
2022/01/31 12:00:49;;;;;;;10.13;1.58;;;7.80;99.90;;;;;;5018639;28;20053;-67
2022/01/31 12:03:16;;;;;;;14.52;1.60;;;7.80;99.90;;;;;;5017605;28;20532;-67
2022/01/31 12:05:43;;;;;;;9.98;1.38;;;7.70;99.90;;;;;;5021762;28;20045;-67
2022/01/31 12:08:20;;;;;;;10.20;1.77;;;7.70;99.90;;;;;;5019514;28;20123;-67
2022/01/31 12:11:09;;;;;;;13.20;1.40;;;7.60;99.90;;;;;;5016468;28;20041;-67
2022/01/31 12:14:00;;;;;;;8.13;1.02;;;7.80;99.90;;;;;;5019401;28;20034;-67
2022/01/31 12:16:42;;;;;;;10.25;1.25;;;7.90;99.90;;;;;;5020649;28;20041;-67
2022/01/31 12:22:02;;;;;;;10.85;1.70;;;8.10;99.90;;;;;;5019273;28;20056;-68
2022/01/31 12:24:29;;;;;;;9.60;1.20;;;8.20;99.90;;;;;;5016740;28;20132;-68
2022/01/31 12:27:16;;;;;;;10.13;1.20;;;8.20;99.90;;;;;;5022200;28;20049;-68
2022/01/31 12:29:45;;;;;;;9.18;1.17;;;8.30;99.90;;;;;;5017858;28;20058;-68
2022/01/31 12:32:31;;;;;;;7.95;1.30;;;8.30;99.90;;;;;;5017461;28;20049;-68
2022/01/31 12:34:59;;;;;;;9.13;1.00;;;8.20;99.90;;;;;;5017630;28;20537;-68
2022/01/31 12:37:36;;;;;;;9.07;1.48;;;8.20;99.90;;;;;;5021226;28;20081;-68
2022/01/31 12:40:28;;;;;;;8.82;1.27;;;8.20;99.90;;;;;;5017503;28;20124;-68
2022/01/31 12:43:36;;;;;;;8.00;1.20;;;8.20;99.90;;;;;;5019106;28;20470;-67
2022/01/31 12:46:04;;;;;;;8.13;1.08;;;8.20;99.90;;;;;;5016106;28;20045;-67
2022/01/31 12:48:29;;;;;;;5.90;1.25;;;8.10;99.90;;;;;;5019280;28;20085;-68
2022/01/31 12:50:56;;;;;;;9.20;1.45;;;8.20;99.90;;;;;;5019321;28;20492;-68
2022/01/31 12:53:28;;;;;;;11.68;1.45;;;8.10;99.90;;;;;;5017954;28;20072;-69
2022/01/31 12:56:29;;;;;;;11.10;1.10;;;8.10;99.90;;;;;;5018760;28;20112;-68
2022/01/31 12:59:12;;;;;;;12.45;1.48;;;8.10;99.90;;;;;;5017868;28;20108;-68
2022/01/31 13:02:05;;;;;;;7.57;1.48;;;8.00;99.90;;;;;;5019781;28;20504;-68
2022/01/31 13:04:31;;;;;;;9.75;1.35;;;8.00;99.90;;;;;;5013219;28;20050;-68
2022/01/31 13:06:59;;;;;;;9.32;1.33;;;8.00;99.90;;;;;;5013806;28;20103;-68
2022/01/31 13:09:35;;;;;;;15.88;2.28;;;8.00;99.90;;;;;;5016352;28;20033;-68
2022/01/31 13:12:04;;;;;;;13.95;1.88;;;8.00;99.90;;;;;;5018881;28;20036;-68
2022/01/31 13:14:45;;;;;;;11.15;1.25;;;8.00;99.90;;;;;;5019369;28;20553;-69
2022/01/31 13:17:20;;;;;;;14.73;1.88;;;8.10;99.90;;;;;;5014719;28;20502;-69
2022/01/31 13:19:47;;;;;;;13.82;1.65;;;8.00;99.90;;;;;;5017717;28;20059;-69
2022/01/31 13:22:37;;;;;;;10.77;1.65;;;8.00;99.90;;;;;;5013310;28;20046;-69
2022/01/31 13:25:10;;;;;;;21.38;2.03;;;8.00;99.90;;;;;;5017336;28;20600;-68
2022/01/31 13:27:40;;;;;;;12.95;2.08;;;8.00;99.90;;;;;;5020231;28;20125;-68